Time;durP1;ratioP1;P1;durP2;ratioP2;P2;SDS_P1;SDS_P2;PMS_P1;PMS_P2;Temp;Humidity;BMP_temperature;BMP_pressure;BME280_temperature;BME280_humidity;BME280_pressure;Samples;Min_cycle;Max_cycle;Signal;HPM_P1;HPM_P2
2021/03/13 11:37:04;;;;;;;74.75;47.20;;;;;;;6.07;83.54;101411.30;1842905;76;23261;-85
2021/03/13 11:39:33;;;;;;;78.97;50.55;;;;;;;6.00;84.18;101405.95;1820717;78;21118;-84
2021/03/13 11:57:26;;;;;;;77.20;49.27;;;;;;;5.84;87.68;101384.17;1622497;86;21508;-84
2021/03/13 12:03:07;;;;;;;75.35;46.92;;;;;;;5.90;88.69;101366.42;1916876;74;22719;-83
2021/03/13 12:06:08;;;;;;;72.25;46.88;;;;;;;5.88;89.26;101378.06;1822396;78;21107;-84
2021/03/13 12:08:54;;;;;;;69.72;44.55;;;;;;;5.88;89.52;101374.63;1822743;78;22039;-84
2021/03/13 12:11:23;;;;;;;83.87;50.73;;;;;;;5.85;89.65;101370.00;1822988;78;21690;-81
2021/03/13 12:14:08;;;;;;;80.90;48.50;;;;;;;5.85;89.86;101362.27;1800771;77;22357;-82
2021/03/13 12:17:11;;;;;;;77.92;47.70;;;;;;;5.81;90.48;101364.52;1772848;78;21559;-84
2021/03/13 12:19:41;;;;;;;68.07;44.18;;;;;;;5.77;90.60;101360.39;1770350;80;21769;-83
2021/03/13 12:22:09;;;;;;;67.32;43.42;;;;;;;5.76;90.97;101360.43;1770517;80;21155;-82
2021/03/13 12:24:38;;;;;;;65.70;43.30;;;;;;;5.73;91.03;101365.25;1769323;80;21472;-82
2021/03/13 12:27:06;;;;;;;63.10;42.90;;;;;;;5.75;91.37;101358.30;1769545;80;21503;-82
2021/03/13 12:29:34;;;;;;;62.90;43.08;;;;;;;5.79;91.73;101358.59;1769186;80;21559;-84
2021/03/13 12:32:03;;;;;;;63.13;40.63;;;;;;;5.79;91.61;101359.03;1769982;80;21876;-82
2021/03/13 12:34:32;;;;;;;62.88;41.33;;;;;;;5.73;91.39;101356.23;1769835;80;21578;-81
2021/03/13 12:37:00;;;;;;;64.60;44.10;;;;;;;5.66;91.44;101356.49;1770161;80;21567;-81
2021/03/13 12:39:29;;;;;;;63.80;42.88;;;;;;;5.65;91.75;101356.09;1770643;79;21622;-82
2021/03/13 12:41:57;;;;;;;62.08;42.00;;;;;;;5.62;92.01;101350.60;1770931;80;21464;-82
2021/03/13 12:44:25;;;;;;;73.15;46.18;;;;;;;5.63;92.24;101355.31;1769480;80;21874;-83
2021/03/13 12:46:53;;;;;;;77.27;47.25;;;;;;;5.66;92.54;101351.34;1770917;80;21488;-82
2021/03/13 12:49:22;;;;;;;67.35;42.65;;;;;;;5.70;92.80;101351.20;1769605;80;21776;-82
2021/03/13 12:51:52;;;;;;;67.87;44.08;;;;;;;5.69;92.72;101348.22;1770959;80;21301;-83
2021/03/13 12:54:28;;;;;;;61.77;41.28;;;;;;;5.66;92.58;101350.05;1770568;80;21119;-82
2021/03/13 12:57:08;;;;;;;60.48;41.08;;;;;;;5.61;92.80;101339.09;1771484;80;21760;-81
2021/03/13 12:59:37;;;;;;;58.23;39.48;;;;;;;5.59;93.13;101347.30;1770912;80;21812;-83
2021/03/13 13:02:05;;;;;;;64.90;41.60;;;;;;;5.59;93.30;101346.00;1770071;80;21658;-81
2021/03/13 13:04:33;;;;;;;60.28;38.90;;;;;;;5.56;93.33;101344.83;1771226;80;21155;-81
2021/03/13 13:07:02;;;;;;;58.13;38.95;;;;;;;5.58;93.48;101340.48;1771003;80;21119;-81
2021/03/13 13:09:33;;;;;;;52.30;38.20;;;;;;;5.61;93.69;101342.95;1772055;80;21579;-81
2021/03/13 13:12:08;;;;;;;60.58;40.73;;;;;;;5.66;94.18;101343.17;1771030;79;21562;-83
2021/03/13 13:14:36;;;;;;;56.02;38.67;;;;;;;5.72;94.43;101341.67;1791628;79;21515;-81
2021/03/13 13:17:04;;;;;;;52.62;37.45;;;;;;;5.76;94.58;101339.83;1790299;79;21103;-82
2021/03/13 13:19:33;;;;;;;58.83;40.63;;;;;;;5.73;94.77;101344.65;1789986;79;21502;-81
2021/03/13 13:22:03;;;;;;;60.52;41.92;;;;;;;5.68;94.50;101352.16;1789663;79;21645;-82
2021/03/13 13:24:31;;;;;;;65.12;42.93;;;;;;;5.62;94.76;101360.91;1790526;79;21244;-80
2021/03/13 13:27:00;;;;;;;67.35;43.68;;;;;;;5.62;95.18;101366.05;1789268;79;21567;-81
2021/03/13 13:29:28;;;;;;;56.55;39.67;;;;;;;5.62;95.42;101366.50;1789886;78;21630;-81
2021/03/13 13:31:56;;;;;;;61.02;44.08;;;;;;;5.62;95.67;101368.63;1789253;79;21467;-82
2021/03/13 13:34:24;;;;;;;61.45;42.43;;;;;;;5.61;95.88;101360.53;1789211;79;21634;-81
2021/03/13 13:36:52;;;;;;;64.90;42.35;;;;;;;5.59;96.00;101359.72;1789465;79;21562;-82
2021/03/13 13:39:20;;;;;;;62.10;41.15;;;;;;;5.64;96.36;101359.58;1788743;79;21547;-82
2021/03/13 13:41:49;;;;;;;60.35;41.18;;;;;;;5.65;96.46;101338.91;1788675;79;21596;-83
2021/03/13 13:44:18;;;;;;;63.42;40.98;;;;;;;5.69;96.65;101328.91;1788972;79;21451;-82
2021/03/13 13:46:47;;;;;;;60.50;41.28;;;;;;;5.71;96.80;101325.81;1789593;79;22045;-82
2021/03/13 13:49:16;;;;;;;58.58;40.33;;;;;;;5.76;97.00;101318.78;1790464;79;21067;-82
2021/03/13 13:51:45;;;;;;;56.18;39.30;;;;;;;5.85;97.41;101318.48;1789075;79;21535;-81
2021/03/13 13:54:25;;;;;;;56.83;39.00;;;;;;;5.99;97.73;101319.73;1789717;79;21598;-83
2021/03/13 13:56:53;;;;;;;55.70;36.80;;;;;;;6.09;97.72;101318.05;1789830;79;21538;-83
2021/03/13 13:59:23;;;;;;;55.23;37.78;;;;;;;6.03;97.24;101322.59;1791569;79;21660;-81
2021/03/13 14:01:57;;;;;;;53.28;36.58;;;;;;;5.96;97.34;101315.97;1790615;79;21553;-82
2021/03/13 14:04:37;;;;;;;56.85;37.85;;;;;;;5.89;97.64;101311.48;1783641;79;21464;-80
2021/03/13 14:07:05;;;;;;;56.77;39.53;;;;;;;5.81;98.02;101311.72;1791045;79;21475;-81
2021/03/13 14:09:38;;;;;;;53.52;37.10;;;;;;;5.74;98.39;101310.25;1789302;79;21491;-81
2021/03/13 14:12:07;;;;;;;51.50;35.92;;;;;;;5.74;98.80;101313.30;1788935;79;21070;-80
2021/03/13 14:14:35;;;;;;;47.35;33.85;;;;;;;5.82;99.24;101325.45;1772247;79;21685;-80
2021/03/13 14:17:08;;;;;;;46.13;33.50;;;;;;;5.95;99.42;101331.03;1771716;80;21603;-83
2021/03/13 14:19:38;;;;;;;41.83;30.15;;;;;;;6.04;99.19;101330.69;1771094;80;21193;-82
2021/03/13 14:22:06;;;;;;;45.92;33.00;;;;;;;6.02;98.78;101335.07;1770459;79;21453;-81
2021/03/13 14:24:35;;;;;;;45.10;32.70;;;;;;;6.00;98.65;101340.27;1769823;80;21508;-81
2021/03/13 14:27:03;;;;;;;49.20;32.78;;;;;;;6.02;98.66;101344.93;1771899;79;21531;-81
2021/03/13 14:29:33;;;;;;;47.38;32.80;;;;;;;6.04;98.75;101339.27;1772431;79;21124;-82
2021/03/13 14:32:04;;;;;;;44.80;31.27;;;;;;;6.08;98.76;101334.84;1773712;80;21132;-82
2021/03/13 14:34:35;;;;;;;45.50;32.90;;;;;;;6.11;98.65;101338.15;1772569;80;21124;-82
2021/03/13 14:37:03;;;;;;;46.90;31.55;;;;;;;6.21;98.90;101343.80;1773098;79;22143;-81
2021/03/13 14:39:33;;;;;;;46.30;32.25;;;;;;;6.31;98.81;101347.28;1773795;80;21099;-81
2021/03/13 14:42:04;;;;;;;45.30;32.38;;;;;;;6.37;98.47;101337.17;1775024;80;21571;-82
2021/03/13 14:45:44;;;;;;;50.08;34.08;;;;;;;6.42;98.43;101338.27;1775404;80;21459;-82
2021/03/13 14:55:22;;;;;;;44.95;30.25;;;;;;;6.38;97.55;101341.45;1776573;77;22766;-83
2021/03/13 14:58:02;;;;;;;46.42;32.98;;;;;;;6.36;97.54;101334.20;1720468;78;21272;-82
2021/03/13 15:00:42;;;;;;;49.18;34.03;;;;;;;6.37;97.50;101322.55;1704811;80;21201;-83
2021/03/13 15:07:56;;;;;;;42.30;31.10;;;;;;;6.38;97.57;101334.52;1711254;78;21145;31
2021/03/13 15:10:28;;;;;;;41.98;31.35;;;;;;;6.41;97.65;101331.46;1678541;79;21140;-85
2021/03/13 15:13:07;;;;;;;38.42;28.20;;;;;;;6.48;97.71;101322.59;1668977;81;21600;-87
2021/03/13 15:15:35;;;;;;;45.35;31.68;;;;;;;6.51;97.60;101329.73;1725172;78;21817;-87
2021/03/13 15:18:09;;;;;;;43.45;31.85;;;;;;;6.46;97.40;101321.36;1736786;78;21272;-84
2021/03/13 15:21:01;;;;;;;48.45;31.93;;;;;;;6.37;97.15;101316.55;1688043;79;21276;31
2021/03/13 15:23:37;;;;;;;46.00;32.33;;;;;;;6.29;97.09;101320.70;1716352;78;21097;-82
2021/03/13 15:30:48;;;;;;;49.38;33.50;;;;;;;6.22;97.46;101318.43;1700328;80;21537;-85
2021/03/13 15:37:03;;;;;;;47.80;32.05;;;;;;;6.10;97.75;101317.58;1662367;80;21063;31
2021/03/13 15:39:31;;;;;;;46.42;32.50;;;;;;;6.06;98.16;101328.44;1762472;80;21190;-86
2021/03/13 15:41:59;;;;;;;44.98;32.83;;;;;;;6.06;98.35;101327.16;1718548;82;21056;-86
2021/03/13 15:44:32;;;;;;;47.43;32.88;;;;;;;6.02;98.43;101329.91;1743063;79;22335;-84
2021/03/13 15:50:44;;;;;;;42.67;30.97;;;;;;;5.86;98.52;101329.63;1726304;77;21599;-84
2021/03/13 15:53:13;;;;;;;41.10;29.35;;;;;;;5.73;98.87;101330.48;1746830;81;21111;-85
2021/03/13 15:55:42;;;;;;;46.85;31.82;;;;;;;5.68;99.10;101328.50;1752194;82;21175;-85
2021/03/13 15:58:10;;;;;;;45.50;32.40;;;;;;;5.59;99.18;101330.11;1749285;82;21588;-85
2021/03/13 16:00:40;;;;;;;52.30;33.08;;;;;;;5.54;99.43;101328.60;1745537;82;21190;-85
2021/03/13 16:03:13;;;;;;;52.33;34.48;;;;;;;5.49;99.59;101335.66;1747295;82;21095;-86
2021/03/13 16:05:43;;;;;;;52.08;34.73;;;;;;;5.45;99.79;101334.07;1753919;82;21016;-85
2021/03/13 16:08:13;;;;;;;50.10;33.67;;;;;;;5.47;100.00;101334.41;1744144;82;21443;-85
2021/03/13 16:10:41;;;;;;;52.83;34.90;;;;;;;5.49;100.00;101332.61;1743437;81;21900;-86
2021/03/13 16:13:11;;;;;;;58.42;37.13;;;;;;;5.51;100.00;101335.14;1745222;82;21138;-85
2021/03/13 16:15:40;;;;;;;51.23;35.75;;;;;;;5.51;100.00;101335.99;1745532;82;21187;-86
2021/03/13 16:18:13;;;;;;;53.78;35.98;;;;;;;5.52;100.00;101335.08;1747931;82;21527;-86
2021/03/13 16:20:44;;;;;;;49.20;34.35;;;;;;;5.51;100.00;101335.14;1744083;82;21599;-86
2021/03/13 16:23:15;;;;;;;46.70;33.60;;;;;;;5.52;100.00;101341.98;1741093;82;21905;-86
2021/03/13 16:25:45;;;;;;;47.85;34.33;;;;;;;5.53;100.00;101343.20;1741678;82;21614;-84
2021/03/13 16:28:15;;;;;;;50.63;34.53;;;;;;;5.53;100.00;101344.49;1742114;82;21529;-84
2021/03/13 16:30:44;;;;;;;51.00;35.50;;;;;;;5.54;100.00;101341.48;1743027;82;21550;-84
2021/03/13 16:33:14;;;;;;;58.83;36.60;;;;;;;5.54;100.00;101344.05;1742811;82;21123;-85
2021/03/13 16:35:44;;;;;;;57.60;35.78;;;;;;;5.54;100.00;101349.20;1741683;82;21963;-84
2021/03/13 16:38:12;;;;;;;56.92;35.45;;;;;;;5.51;100.00;101355.30;1743958;82;21538;-84
2021/03/13 16:40:41;;;;;;;57.08;35.80;;;;;;;5.53;100.00;101356.08;1741234;82;21629;-85
2021/03/13 16:43:11;;;;;;;55.28;34.75;;;;;;;5.57;100.00;101356.38;1739263;82;21657;-84
2021/03/13 16:45:51;;;;;;;52.58;34.92;;;;;;;5.61;100.00;101351.96;1740154;82;21598;-85
2021/03/13 16:48:19;;;;;;;51.48;34.95;;;;;;;5.64;100.00;101350.56;1740155;82;21985;-85
2021/03/13 16:50:51;;;;;;;60.45;39.18;;;;;;;5.68;100.00;101354.73;1740381;82;21621;-86
2021/03/13 16:53:21;;;;;;;61.65;40.43;;;;;;;5.71;100.00;101360.58;1703339;83;21629;-85
2021/03/13 16:55:51;;;;;;;66.62;41.77;;;;;;;5.77;100.00;101365.98;1701389;83;21601;-84
2021/03/13 16:58:21;;;;;;;65.87;41.73;;;;;;;5.80;100.00;101377.47;1701770;83;22163;-84
2021/03/13 17:00:49;;;;;;;66.22;42.27;;;;;;;5.82;100.00;101382.95;1671859;83;21939;-85
2021/03/13 17:03:18;;;;;;;59.90;40.12;;;;;;;5.83;100.00;101382.52;1702624;83;21561;-85
2021/03/13 17:05:48;;;;;;;65.08;41.02;;;;;;;5.82;100.00;101382.95;1701025;83;21205;-84
2021/03/13 17:08:16;;;;;;;61.58;40.05;;;;;;;5.86;100.00;101382.44;1672216;83;21613;-84
2021/03/13 17:10:45;;;;;;;63.40;41.77;;;;;;;5.89;100.00;101387.92;1701704;83;21697;-84
2021/03/13 17:13:21;;;;;;;63.08;41.37;;;;;;;5.91;100.00;101397.27;1702143;83;21885;-84
2021/03/13 17:16:05;;;;;;;60.33;38.53;;;;;;;5.92;100.00;101397.67;1701471;83;21636;-84
2021/03/13 17:18:33;;;;;;;58.15;38.35;;;;;;;5.94;100.00;101401.47;1702044;83;21745;-84
2021/03/13 17:21:06;;;;;;;61.47;41.13;;;;;;;5.93;100.00;101402.38;1701650;83;21413;-84
2021/03/13 17:23:35;;;;;;;68.70;44.85;;;;;;;5.92;100.00;101410.55;1703028;83;21127;-85
2021/03/13 17:26:05;;;;;;;76.07;48.42;;;;;;;5.91;100.00;101410.15;1702934;83;21823;-84
2021/03/13 17:28:34;;;;;;;64.77;44.53;;;;;;;5.92;100.00;101412.28;1702741;83;21598;-84
2021/03/13 17:31:02;;;;;;;69.58;44.50;;;;;;;5.90;100.00;101420.08;1702285;83;21600;-84
2021/03/13 17:33:31;;;;;;;72.08;47.03;;;;;;;5.88;99.89;101421.84;1701803;83;21193;-84
2021/03/13 17:35:59;;;;;;;72.03;46.13;;;;;;;5.83;99.79;101422.44;1701635;83;21665;-84
2021/03/13 17:38:29;;;;;;;67.70;46.05;;;;;;;5.83;99.80;101426.30;1702207;83;22061;-84
2021/03/13 17:40:59;;;;;;;69.67;45.90;;;;;;;5.81;99.76;101421.19;1699898;83;21574;-84
2021/03/13 17:43:29;;;;;;;90.00;60.05;;;;;;;5.80;99.82;101418.23;1699645;83;21573;-83
2021/03/13 17:45:57;;;;;;;92.62;59.42;;;;;;;5.79;99.83;101417.83;1701452;83;21566;-83
2021/03/13 17:48:26;;;;;;;88.17;57.10;;;;;;;5.78;99.85;101423.86;1701128;83;21617;-85
2021/03/13 17:50:54;;;;;;;85.28;57.90;;;;;;;5.80;100.00;101420.81;1705924;83;21781;-83
2021/03/13 17:53:23;;;;;;;81.10;54.10;;;;;;;5.85;100.00;101422.80;1749849;81;21593;-85
2021/03/13 17:55:55;;;;;;;78.72;51.85;;;;;;;5.87;100.00;101422.77;1749824;81;21146;-85
2021/03/13 17:58:25;;;;;;;75.90;52.07;;;;;;;5.90;100.00;101410.22;1750891;81;21195;-85
2021/03/13 18:00:56;;;;;;;78.85;47.85;;;;;;;5.91;100.00;101413.16;1750144;81;21521;-84
2021/03/13 18:03:25;;;;;;;69.90;47.05;;;;;;;5.95;100.00;101411.73;1750272;81;21820;-83
2021/03/13 18:05:54;;;;;;;70.08;45.95;;;;;;;5.99;100.00;101418.91;1749877;81;21609;-83
2021/03/13 18:08:24;;;;;;;64.95;45.43;;;;;;;6.03;100.00;101419.20;1751096;81;21531;-83
2021/03/13 18:10:54;;;;;;;68.78;45.45;;;;;;;6.05;100.00;101414.83;1751986;81;21131;-85
2021/03/13 18:13:26;;;;;;;69.58;45.98;;;;;;;6.06;100.00;101404.45;1750867;81;21614;-86
2021/03/13 18:15:54;;;;;;;68.42;45.52;;;;;;;6.08;100.00;101404.41;1750851;81;21937;-83
2021/03/13 18:18:22;;;;;;;69.85;46.40;;;;;;;6.07;99.86;101407.88;1751903;81;21142;-84
2021/03/13 18:20:52;;;;;;;66.92;43.15;;;;;;;6.04;99.61;101411.84;1753986;81;21604;-83
2021/03/13 18:23:21;;;;;;;64.92;43.05;;;;;;;6.04;99.40;101410.11;1750942;81;21605;-83
2021/03/13 18:25:50;;;;;;;69.77;45.38;;;;;;;6.02;99.29;101399.03;1750194;81;21636;-85
2021/03/13 18:28:18;;;;;;;67.95;44.77;;;;;;;6.02;99.25;101394.33;1752074;81;21838;-84
2021/03/13 18:30:52;;;;;;;70.85;44.95;;;;;;;6.01;99.19;101399.08;1752994;81;21108;-84
2021/03/13 18:33:41;;;;;;;67.03;45.58;;;;;;;5.98;99.23;101395.31;1718310;79;21083;31
2021/03/13 18:36:41;;;;;;;65.32;43.92;;;;;;;5.97;99.44;101393.66;1710298;80;21254;31
2021/03/13 18:39:10;;;;;;;65.65;45.00;;;;;;;5.95;99.50;101388.55;1733834;82;21548;-84
2021/03/13 18:41:40;;;;;;;63.92;43.65;;;;;;;5.91;99.62;101389.54;1694963;84;21162;-84
2021/03/13 18:44:10;;;;;;;66.77;45.10;;;;;;;5.86;99.65;101388.88;1692227;84;21605;-84
2021/03/13 18:46:39;;;;;;;63.38;45.25;;;;;;;5.78;99.72;101386.96;1665940;85;21581;-85
2021/03/13 18:52:55;;;;;;;58.68;40.98;;;;;;;5.69;100.00;101387.28;1697576;84;21063;-82
2021/03/13 18:55:23;;;;;;;71.47;48.30;;;;;;;5.66;100.00;101388.67;1677804;84;21839;-84
2021/03/13 18:57:52;;;;;;;75.15;50.38;;;;;;;5.61;100.00;101391.87;1739145;81;20923;-84
2021/03/13 19:00:25;;;;;;;75.12;47.58;;;;;;;5.56;100.00;101384.28;1700537;84;21451;-83
2021/03/13 19:03:24;;;;;;;68.07;44.35;;;;;;;5.49;100.00;101378.95;1702656;83;21163;-84
2021/03/13 19:05:53;;;;;;;69.10;45.85;;;;;;;5.39;100.00;101380.17;1697923;79;21591;-83
2021/03/13 19:08:21;;;;;;;71.75;47.13;;;;;;;5.30;100.00;101380.00;1703761;83;22045;-84
2021/03/13 19:10:50;;;;;;;73.85;49.85;;;;;;;5.22;100.00;101375.57;1735145;82;21507;-84
2021/03/13 19:13:19;;;;;;;70.47;47.78;;;;;;;5.12;100.00;101373.33;1734409;82;21080;-84
2021/03/13 19:15:47;;;;;;;70.17;46.77;;;;;;;5.02;100.00;101370.66;1731901;82;21514;-84
2021/03/13 19:18:16;;;;;;;62.78;44.13;;;;;;;4.92;100.00;101378.26;1732178;81;21601;-83
2021/03/13 19:20:44;;;;;;;64.03;43.35;;;;;;;4.80;100.00;101376.48;1746087;81;22033;-84
2021/03/13 19:23:16;;;;;;;65.07;44.73;;;;;;;4.73;100.00;101374.13;1736626;81;21578;-85
2021/03/13 19:25:46;;;;;;;66.70;42.10;;;;;;;4.65;100.00;101367.95;1731012;82;21522;-86
2021/03/13 19:28:19;;;;;;;64.80;42.23;;;;;;;4.58;100.00;101365.17;1737997;81;21566;-84
2021/03/13 19:30:48;;;;;;;58.78;40.30;;;;;;;4.50;100.00;101363.73;1719689;79;21164;-85
2021/03/13 19:33:37;;;;;;;60.00;40.38;;;;;;;4.42;100.00;101369.52;1657897;85;21923;-85
2021/03/13 19:36:06;;;;;;;58.87;40.10;;;;;;;4.31;100.00;101365.97;1636090;84;21653;-85
2021/03/13 19:38:34;;;;;;;60.28;39.67;;;;;;;4.24;100.00;101362.73;1634724;87;21237;-85
2021/03/13 19:41:02;;;;;;;57.33;37.65;;;;;;;4.19;100.00;101367.61;1644744;86;21694;-86
2021/03/13 19:43:31;;;;;;;58.33;38.73;;;;;;;4.14;100.00;101372.90;1649556;84;21589;-85
2021/03/13 19:45:59;;;;;;;53.48;37.70;;;;;;;4.10;100.00;101374.30;1648270;84;22006;-85
2021/03/13 19:48:27;;;;;;;60.35;38.30;;;;;;;4.06;100.00;101370.13;1653415;86;21610;-85
2021/03/13 19:50:57;;;;;;;55.85;36.68;;;;;;;4.01;100.00;101363.84;1637696;86;21506;-85
2021/03/13 19:53:25;;;;;;;49.63;35.65;;;;;;;3.98;100.00;101363.94;1648221;86;21193;-85
2021/03/13 19:55:54;;;;;;;52.15;34.67;;;;;;;3.92;100.00;101356.84;1649413;86;21558;-85
2021/03/13 19:58:23;;;;;;;53.92;37.88;;;;;;;3.85;100.00;101356.16;1648598;86;21756;-86
2021/03/13 20:00:52;;;;;;;60.08;40.90;;;;;;;3.79;100.00;101357.62;1647872;86;21600;-85
2021/03/13 20:03:39;;;;;;;57.60;37.33;;;;;;;3.73;100.00;101359.88;1650198;86;21178;-85
2021/03/13 20:06:07;;;;;;;50.12;35.05;;;;;;;3.67;100.00;101348.94;1652733;86;21174;-85
2021/03/13 20:08:56;;;;;;;51.08;33.50;;;;;;;3.62;100.00;101354.64;1654953;86;21570;-85
2021/03/13 20:11:26;;;;;;;51.53;33.78;;;;;;;3.54;100.00;101354.84;1652078;81;21796;-85
2021/03/13 20:13:57;;;;;;;50.85;33.40;;;;;;;3.49;100.00;101350.28;1655322;82;21227;-85
2021/03/13 20:16:27;;;;;;;45.78;30.55;;;;;;;3.45;100.00;101349.09;1667332;82;21581;-84
2021/03/13 20:18:56;;;;;;;42.70;29.65;;;;;;;3.43;100.00;101352.16;1674431;84;21158;-84
2021/03/13 20:24:07;;;;;;;48.10;30.62;;;;;;;3.42;100.00;101355.59;1809101;79;22266;-86
2021/03/13 20:26:37;;;;;;;50.08;31.82;;;;;;;3.39;100.00;101356.95;1784506;80;21882;-85
2021/03/13 20:29:05;;;;;;;48.45;32.65;;;;;;;3.37;100.00;101355.73;1789549;80;21198;-85
2021/03/13 20:31:33;;;;;;;47.10;30.75;;;;;;;3.35;100.00;101360.50;1790562;80;21078;-85
2021/03/13 20:34:03;;;;;;;47.90;32.70;;;;;;;3.33;100.00;101354.55;1780268;77;21030;-84
2021/03/13 20:36:35;;;;;;;46.13;30.88;;;;;;;3.35;100.00;101359.22;1686806;81;21155;-85
2021/03/13 20:39:24;;;;;;;49.60;33.70;;;;;;;3.41;100.00;101349.65;1739700;77;21778;31
2021/03/13 20:41:52;;;;;;;49.33;32.90;;;;;;;3.48;100.00;101349.02;1663419;80;21995;-83
2021/03/13 20:44:23;;;;;;;44.98;30.23;;;;;;;3.52;100.00;101348.91;1716873;80;20875;-85
2021/03/13 20:47:42;;;;;;;46.50;30.70;;;;;;;3.50;100.00;101348.13;1746734;78;22534;31
2021/03/13 20:51:00;;;;;;;50.38;31.77;;;;;;;3.51;100.00;101339.52;1834679;77;22575;-80
2021/03/13 20:53:29;;;;;;;48.10;31.90;;;;;;;3.49;100.00;101337.88;1795692;78;21143;-83
2021/03/13 20:56:11;;;;;;;47.33;31.57;;;;;;;3.50;100.00;101340.42;1728926;79;22141;31
2021/03/13 20:58:44;;;;;;;44.65;30.62;;;;;;;3.51;100.00;101336.14;1674110;80;21228;-84
2021/03/13 21:01:12;;;;;;;43.58;30.23;;;;;;;3.48;100.00;101330.62;1714508;78;21535;-83
2021/03/13 21:03:42;;;;;;;41.25;28.90;;;;;;;3.48;100.00;101331.06;1685084;80;21635;-84
2021/03/13 21:06:12;;;;;;;44.08;28.67;;;;;;;3.45;100.00;101330.70;1693668;80;21324;-84
2021/03/13 21:09:33;;;;;;;42.83;29.50;;;;;;;3.39;100.00;101327.02;1720625;80;21121;31
2021/03/13 21:12:21;;;;;;;39.73;27.50;;;;;;;3.34;100.00;101326.31;1676017;79;21340;31
2021/03/13 21:18:46;;;;;;;40.95;27.85;;;;;;;3.17;100.00;101322.88;1682987;81;21234;-86
2021/03/13 21:28:42;;;;;;;42.23;28.30;;;;;;;3.17;100.00;101306.65;1782432;78;23080;31
2021/03/13 21:31:46;;;;;;;42.38;27.67;;;;;;;3.18;100.00;101318.16;1580927;89;21615;-83
2021/03/13 21:34:14;;;;;;;43.00;30.25;;;;;;;3.24;100.00;101317.59;1654059;85;21611;-83
2021/03/13 21:36:49;;;;;;;46.40;31.07;;;;;;;3.31;100.00;101318.69;1674967;80;20888;-83
2021/03/13 21:39:22;;;;;;;45.58;32.28;;;;;;;3.34;100.00;101311.36;1704808;81;21091;-85
2021/03/13 21:42:41;;;;;;;40.67;29.30;;;;;;;3.33;100.00;101308.37;1746073;81;21052;31
2021/03/13 21:45:10;;;;;;;44.05;28.98;;;;;;;3.32;100.00;101309.28;1618624;88;20973;-85
2021/03/13 21:47:38;;;;;;;49.38;34.08;;;;;;;3.29;100.00;101310.64;1619553;88;21905;-86
2021/03/13 21:50:15;;;;;;;89.50;53.65;;;;;;;3.19;100.00;101315.98;1610493;89;21579;-86
2021/03/13 21:52:45;;;;;;;106.92;59.85;;;;;;;2.83;100.00;101321.18;1598434;89;21059;-85
2021/03/13 21:55:14;;;;;;;114.03;62.23;;;;;;;2.41;100.00;101317.44;1595221;90;21169;-85
2021/03/13 21:57:45;;;;;;;117.42;63.98;;;;;;;2.14;100.00;101322.70;1615591;88;21137;-86
2021/03/13 22:00:14;;;;;;;118.95;64.97;;;;;;;1.98;100.00;101325.17;1612698;88;21404;-84
2021/03/13 22:03:00;;;;;;;119.45;65.45;;;;;;;1.82;100.00;101331.94;1604570;89;21125;-85
2021/03/13 22:05:28;;;;;;;134.12;70.97;;;;;;;1.73;100.00;101326.97;1593614;90;21177;-85
2021/03/13 22:07:58;;;;;;;122.02;69.17;;;;;;;1.66;100.00;101330.54;1591468;90;21082;-86
2021/03/13 22:10:32;;;;;;;105.12;61.85;;;;;;;1.59;100.00;101328.09;1589640;90;21244;-86
2021/03/13 22:13:01;;;;;;;108.37;61.25;;;;;;;1.50;100.00;101337.19;1604792;88;21884;-85
2021/03/13 22:15:29;;;;;;;105.07;58.95;;;;;;;1.46;100.00;101326.63;1606764;88;21523;-85
2021/03/13 22:17:58;;;;;;;100.95;57.38;;;;;;;1.45;100.00;101329.20;1605292;88;21625;-85
2021/03/13 22:20:28;;;;;;;95.95;58.28;;;;;;;1.44;100.00;101329.63;1606103;88;21554;-85
2021/03/13 22:22:56;;;;;;;101.15;58.45;;;;;;;1.41;100.00;101334.80;1603696;89;21599;-85
2021/03/13 22:25:25;;;;;;;108.00;63.23;;;;;;;1.41;100.00;101336.52;1604533;89;21952;-85
2021/03/13 22:27:53;;;;;;;103.00;61.95;;;;;;;1.33;100.00;101330.28;1603741;89;21662;-85
2021/03/13 22:30:21;;;;;;;102.05;60.95;;;;;;;1.25;100.00;101328.70;1603619;89;21521;-85
2021/03/13 22:32:49;;;;;;;95.10;59.67;;;;;;;1.18;100.00;101324.13;1603325;88;21585;-85
2021/03/13 22:35:20;;;;;;;92.62;59.40;;;;;;;1.10;100.00;101320.87;1605390;89;21207;-86
2021/03/13 22:37:48;;;;;;;94.58;57.05;;;;;;;1.05;100.00;101313.73;1604751;88;21766;-85
2021/03/13 22:40:18;;;;;;;87.75;53.75;;;;;;;1.02;100.00;101311.22;1602905;89;21108;-85
2021/03/13 22:42:46;;;;;;;80.00;51.65;;;;;;;1.02;100.00;101315.05;1603079;89;21235;-86
2021/03/13 22:45:16;;;;;;;76.92;51.30;;;;;;;1.02;100.00;101316.34;1617036;86;21640;-85
2021/03/13 22:47:46;;;;;;;72.55;49.65;;;;;;;0.99;100.00;101315.92;1619063;87;21689;-85
2021/03/13 22:50:14;;;;;;;60.33;43.08;;;;;;;0.95;100.00;101315.59;1619002;87;22058;-86
2021/03/13 22:52:42;;;;;;;58.73;40.90;;;;;;;0.93;100.00;101324.97;1606023;88;21667;-86
2021/03/13 22:55:11;;;;;;;56.15;38.15;;;;;;;0.86;100.00;101334.05;1605185;88;21638;-86
2021/03/13 22:57:39;;;;;;;49.63;35.45;;;;;;;0.82;100.00;101329.85;1606198;88;21112;-86
2021/03/13 23:00:29;;;;;;;47.65;34.55;;;;;;;0.78;100.00;101319.27;1605458;88;21528;-86
2021/03/13 23:02:58;;;;;;;46.40;33.63;;;;;;;0.77;100.00;101327.35;1613356;88;21521;-86
2021/03/13 23:05:27;;;;;;;44.20;32.85;;;;;;;0.76;100.00;101325.69;1612532;88;21579;-85
2021/03/13 23:07:59;;;;;;;43.28;31.05;;;;;;;0.73;100.00;101324.89;1605358;89;21240;-85
2021/03/13 23:10:29;;;;;;;41.68;29.72;;;;;;;0.72;100.00;101318.93;1603828;89;21113;-85
2021/03/13 23:12:59;;;;;;;41.23;28.70;;;;;;;0.74;100.00;101316.34;1603560;89;21125;-86
2021/03/13 23:15:27;;;;;;;38.83;29.02;;;;;;;0.72;100.00;101320.20;1603756;89;21576;-86
2021/03/13 23:17:58;;;;;;;39.73;27.82;;;;;;;0.74;100.00;101298.45;1613439;88;21523;-86
2021/03/13 23:20:39;;;;;;;39.70;28.60;;;;;;;0.79;100.00;101297.54;1647776;81;21202;31
2021/03/13 23:23:08;;;;;;;39.80;29.17;;;;;;;0.85;100.00;101293.61;1615641;88;21498;-86
2021/03/13 23:25:39;;;;;;;39.92;28.15;;;;;;;0.90;100.00;101286.70;1590528;90;21181;-87
2021/03/13 23:28:08;;;;;;;40.52;29.30;;;;;;;0.96;100.00;101287.02;1586359;88;22066;-84
2021/03/13 23:30:40;;;;;;;41.88;29.85;;;;;;;0.99;100.00;101293.36;1606325;88;21598;-85
2021/03/13 23:33:11;;;;;;;44.60;30.40;;;;;;;1.04;100.00;101291.16;1604167;89;21681;-85
2021/03/13 23:35:53;;;;;;;42.83;30.50;;;;;;;1.06;100.00;101297.07;1604199;87;21683;-85
2021/03/13 23:38:24;;;;;;;41.80;28.30;;;;;;;1.04;100.00;101295.41;1607021;88;21654;-85
2021/03/13 23:40:53;;;;;;;43.65;29.12;;;;;;;1.04;100.00;101292.44;1604050;88;21892;-85
2021/03/13 23:43:26;;;;;;;44.15;28.73;;;;;;;1.03;100.00;101284.78;1580633;90;21684;-85
2021/03/13 23:45:54;;;;;;;45.55;29.63;;;;;;;1.05;100.00;101289.45;1609002;88;21512;-85
2021/03/13 23:48:23;;;;;;;37.15;26.90;;;;;;;1.05;100.00;101293.28;1582760;90;21669;-85
2021/03/13 23:50:53;;;;;;;37.98;26.12;;;;;;;1.04;100.00;101289.03;1602827;89;21184;-86
2021/03/13 23:53:23;;;;;;;38.90;25.32;;;;;;;1.02;100.00;101283.92;1601494;89;21686;-86
2021/03/13 23:55:53;;;;;;;39.65;27.20;;;;;;;0.98;100.00;101277.64;1603611;89;21726;-85
2021/03/13 23:58:26;;;;;;;37.00;26.30;;;;;;;0.93;100.00;101275.57;1610494;89;21200;-85
